Time;durP1;ratioP1;P1;durP2;ratioP2;P2;SDS_P1;SDS_P2;PMS_P1;PMS_P2;Temp;Humidity;BMP_temperature;BMP_pressure;BME280_temperature;BME280_humidity;BME280_pressure;Samples;Min_cycle;Max_cycle;Signal;HPM_P1;HPM_P2
2022/04/11 00:01:09;;;;;;;;;;;;;;;2.01;67.59;96822.66;4894323;29;19965;-74
2022/04/11 00:03:35;;;;;;;;;;;;;;;1.99;67.68;96816.81;4891410;29;19964;-74
2022/04/11 00:06:01;;;;;;;;;;;;;;;1.95;67.50;96820.69;4888238;29;20444;-74
2022/04/11 00:08:27;;;;;;;;;;;;;;;1.94;67.52;96819.88;4888290;29;20014;-74
2022/04/11 00:10:53;;;;;;;;;;;;;;;1.92;67.68;96819.22;4888004;29;19958;-74
2022/04/11 00:13:19;;;;;;;;;;;;;;;1.91;67.53;96822.78;4886458;29;20008;-74
2022/04/11 00:15:44;;;;;;;;;;;;;;;1.88;67.84;96814.50;4885345;29;20036;-74
2022/04/11 00:18:10;;;;;;;;;;;;;;;1.88;68.08;96824.84;4890877;29;19998;-74
2022/04/11 00:20:36;;;;;;;;;;;;;;;1.84;68.09;96816.59;4892901;29;19962;-74
2022/04/11 00:23:05;;;;;;;;;;;;;;;1.82;68.15;96811.56;4882033;29;20032;-74
2022/04/11 00:25:31;;;;;;;;;;;;;;;1.79;67.92;96808.50;4889476;29;19974;-74
2022/04/11 00:27:57;;;;;;;;;;;;;;;1.78;67.52;96814.63;4885490;29;19959;-74
2022/04/11 00:30:23;;;;;;;;;;;;;;;1.77;67.96;96816.41;4892270;29;19961;-74
2022/04/11 00:32:49;;;;;;;;;;;;;;;1.75;68.28;96817.53;4880337;29;20011;-74
2022/04/11 00:35:15;;;;;;;;;;;;;;;1.73;68.36;96814.28;4890933;29;20455;-74
2022/04/11 00:37:41;;;;;;;;;;;;;;;1.70;67.94;96810.22;4891534;29;19967;-74
2022/04/11 00:40:07;;;;;;;;;;;;;;;1.69;67.86;96810.38;4888275;29;19968;-74
2022/04/11 00:42:34;;;;;;;;;;;;;;;1.65;68.15;96804.69;4896523;29;20421;-74
2022/04/11 00:45:00;;;;;;;;;;;;;;;1.64;68.04;96792.75;4889185;29;19977;-74
2022/04/11 00:47:26;;;;;;;;;;;;;;;1.63;68.34;96798.84;4889085;29;19960;-74
2022/04/11 00:49:59;;;;;;;;;;;;;;;1.62;68.51;96794.66;4886924;29;19962;-74
2022/04/11 00:52:30;;;;;;;;;;;;;;;1.61;67.72;96795.59;4889634;29;19952;-74
2022/04/11 00:54:57;;;;;;;;;;;;;;;1.59;68.44;96795.75;4880410;29;20332;-74
2022/04/11 00:57:23;;;;;;;;;;;;;;;1.57;68.25;96792.50;4886203;29;19963;-74
2022/04/11 00:59:50;;;;;;;;;;;;;;;1.52;68.19;96783.63;4888173;29;19970;-73
2022/04/11 01:02:30;;;;;;;;;;;;;;;1.48;68.64;96790.84;4891096;29;19963;-74
2022/04/11 01:04:56;;;;;;;;;;;;;;;1.45;68.44;96791.16;4889657;29;20174;-73
2022/04/11 01:07:25;;;;;;;;;;;;;;;1.42;68.46;96789.69;4889604;29;19987;-74
2022/04/11 01:09:52;;;;;;;;;;;;;;;1.41;68.66;96795.81;4882235;29;19968;-74
2022/04/11 01:12:18;;;;;;;;;;;;;;;1.40;68.59;96795.97;4884611;29;19988;-74
2022/04/11 01:14:44;;;;;;;;;;;;;;;1.38;68.54;96792.72;4896725;29;19946;-74
2022/04/11 01:17:10;;;;;;;;;;;;;;;1.36;69.06;96787.69;4881576;29;19962;-74
2022/04/11 01:19:36;;;;;;;;;;;;;;;1.33;68.89;96785.44;4887054;29;19961;-74
2022/04/11 01:22:02;;;;;;;;;;;;;;;1.31;68.69;96782.19;4889410;29;19963;-74
2022/04/11 01:24:28;;;;;;;;;;;;;;;1.29;68.79;96781.53;4891198;29;20333;-78
2022/04/11 01:26:54;;;;;;;;;;;;;;;1.28;69.24;96776.50;4901088;29;19960;-74
2022/04/11 01:29:20;;;;;;;;;;;;;;;1.27;69.17;96780.88;4893807;29;19966;-73
2022/04/11 01:31:46;;;;;;;;;;;;;;;1.26;69.68;96788.75;4891800;29;20004;-73
2022/04/11 01:34:12;;;;;;;;;;;;;;;1.24;69.36;96773.44;4893993;29;19963;-73
2022/04/11 01:36:38;;;;;;;;;;;;;;;1.23;69.70;96779.53;4892486;29;20443;-74
2022/04/11 01:39:04;;;;;;;;;;;;;;;1.21;69.59;96778.88;4887084;29;19992;-74
2022/04/11 01:41:30;;;;;;;;;;;;;;;1.18;69.48;96768.88;4889915;29;19966;-73
2022/04/11 01:44:05;;;;;;;;;;;;;;;1.16;69.83;96763.84;4885405;29;19952;-74
2022/04/11 01:46:31;;;;;;;;;;;;;;;1.17;69.58;96767.22;4896428;29;19961;-74
2022/04/11 01:48:56;;;;;;;;;;;;;;;1.17;69.62;96769.81;4890288;29;19955;-73
2022/04/11 01:51:22;;;;;;;;;;;;;;;1.17;69.86;96775.78;4886566;29;20019;-74
2022/04/11 01:53:48;;;;;;;;;;;;;;;1.17;70.04;96762.06;4894486;29;19953;-73
2022/04/11 01:56:14;;;;;;;;;;;;;;;1.17;70.20;96762.06;4898668;29;20435;-74
2022/04/11 01:58:40;;;;;;;;;;;;;;;1.16;70.73;96757.88;4892893;29;19963;-74
2022/04/11 02:01:06;;;;;;;;;;;;;;;1.14;70.36;96762.38;4894816;29;20316;-74
2022/04/11 02:03:31;;;;;;;;;;;;;;;1.14;70.21;96760.59;4893423;29;20416;-74
2022/04/11 02:05:57;;;;;;;;;;;;;;;1.17;69.63;96755.13;4887550;29;20504;-74
2022/04/11 02:08:24;;;;;;;;;;;;;;;1.17;69.90;96759.47;4894587;29;19964;-73
2022/04/11 02:10:50;;;;;;;;;;;;;;;1.17;70.01;96754.31;4885454;29;19957;-74
2022/04/11 02:13:16;;;;;;;;;;;;;;;1.18;69.87;96753.38;4875533;29;19987;-74
2022/04/11 02:15:42;;;;;;;;;;;;;;;1.17;70.53;96747.38;4893700;29;20003;-74
2022/04/11 02:18:08;;;;;;;;;;;;;;;1.18;71.00;96753.38;4888341;29;19963;-74
2022/04/11 02:20:34;;;;;;;;;;;;;;;1.15;71.14;96745.91;4869060;29;20030;-73
2022/04/11 02:23:00;;;;;;;;;;;;;;;1.14;70.72;96739.94;4878516;29;20002;-73
2022/04/11 02:25:27;;;;;;;;;;;;;;;1.13;71.00;96733.13;4894538;29;19970;-73
2022/04/11 02:27:57;;;;;;;;;;;;;;;1.14;70.92;96731.38;4883504;29;19966;-74
2022/04/11 02:30:23;;;;;;;;;;;;;;;1.14;71.58;96726.22;4891094;29;19970;-74
2022/04/11 02:32:50;;;;;;;;;;;;;;;1.14;71.32;96710.72;4890517;29;19962;-74
2022/04/11 02:35:16;;;;;;;;;;;;;;;1.13;71.51;96702.13;4882241;29;19954;-74
2022/04/11 02:37:42;;;;;;;;;;;;;;;1.14;71.82;96702.97;4889866;29;19969;-73
2022/04/11 02:40:08;;;;;;;;;;;;;;;1.15;71.40;96691.66;4893657;29;19970;-73
2022/04/11 02:42:35;;;;;;;;;;;;;;;1.17;71.33;96687.94;4886459;29;19955;-74
2022/04/11 02:45:01;;;;;;;;;;;;;;;1.19;71.62;96692.97;4891114;29;20439;-73
2022/04/11 02:47:27;;;;;;;;;;;;;;;1.19;71.73;96685.22;4893925;29;19966;-74
2022/04/11 02:49:53;;;;;;;;;;;;;;;1.20;72.07;96673.94;4886440;29;20370;-73
2022/04/11 02:52:19;;;;;;;;;;;;;;;1.23;71.87;96672.81;4899896;29;20481;-74
2022/04/11 02:54:45;;;;;;;;;;;;;;;1.21;72.25;96671.19;4895461;29;19950;-74
2022/04/11 02:57:11;;;;;;;;;;;;;;;1.21;71.91;96671.19;4891496;29;20004;-74
2022/04/11 02:59:37;;;;;;;;;;;;;;;1.20;71.98;96667.00;4887302;29;19960;-74
2022/04/11 03:02:03;;;;;;;;;;;;;;;1.19;71.95;96662.78;4898896;29;19963;-74
2022/04/11 03:04:29;;;;;;;;;;;;;;;1.21;72.46;96672.97;4882018;29;19978;-74
2022/04/11 03:06:56;;;;;;;;;;;;;;;1.21;72.29;96663.44;4889490;29;20342;-74
2022/04/11 03:09:22;;;;;;;;;;;;;;;1.21;71.95;96660.84;4890733;29;19964;-74
2022/04/11 03:11:48;;;;;;;;;;;;;;;1.23;72.28;96657.31;4881656;29;19963;-74
2022/04/11 03:14:14;;;;;;;;;;;;;;;1.23;72.17;96652.97;4881830;29;19954;-74
2022/04/11 03:16:41;;;;;;;;;;;;;;;1.24;72.13;96653.75;4892519;29;20048;-74
2022/04/11 03:19:07;;;;;;;;;;;;;;;1.24;71.89;96649.44;4890866;29;20326;-74
2022/04/11 03:21:33;;;;;;;;;;;;;;;1.25;72.09;96642.47;4881419;29;20325;-74
2022/04/11 03:23:59;;;;;;;;;;;;;;;1.25;72.12;96640.69;4892709;29;19958;-73
2022/04/11 03:26:25;;;;;;;;;;;;;;;1.26;72.21;96637.16;4884826;29;20425;-74
2022/04/11 03:28:51;;;;;;;;;;;;;;;1.25;72.48;96638.13;4891111;29;20420;-73
2022/04/11 03:31:17;;;;;;;;;;;;;;;1.27;72.48;96637.97;4895516;29;20047;-74
2022/04/11 03:33:43;;;;;;;;;;;;;;;1.27;72.51;96635.38;4881448;29;19954;-73
2022/04/11 03:36:09;;;;;;;;;;;;;;;1.27;72.74;96633.59;4889689;29;19962;-73
2022/04/11 03:38:36;;;;;;;;;;;;;;;1.28;72.46;96637.00;4893388;29;19958;-73
2022/04/11 03:41:02;;;;;;;;;;;;;;;1.26;72.68;96633.75;4888435;29;19964;-74
2022/04/11 03:43:28;;;;;;;;;;;;;;;1.24;72.45;96638.25;4887261;29;20318;-73
2022/04/11 03:45:54;;;;;;;;;;;;;;;1.24;72.35;96643.44;4887514;29;20428;-74
2022/04/11 03:48:20;;;;;;;;;;;;;;;1.21;72.39;96636.81;4891119;29;19964;-73
2022/04/11 03:50:46;;;;;;;;;;;;;;;1.20;72.10;96632.63;4893987;29;20045;-73
2022/04/11 03:53:12;;;;;;;;;;;;;;;1.19;72.36;96633.56;4890089;29;20008;-74
2022/04/11 03:55:37;;;;;;;;;;;;;;;1.17;72.32;96633.72;4884014;29;20432;-74
2022/04/11 03:58:03;;;;;;;;;;;;;;;1.15;72.91;96635.63;4892326;29;20074;-73
2022/04/11 04:00:30;;;;;;;;;;;;;;;1.15;72.13;96632.25;4892351;29;19965;-73
2022/04/11 04:03:08;;;;;;;;;;;;;;;1.12;72.60;96629.97;4891027;29;19958;-74
2022/04/11 04:05:41;;;;;;;;;;;;;;;1.09;72.54;96620.78;4873599;29;19982;-73
2022/04/11 04:08:08;;;;;;;;;;;;;;;1.10;72.56;96627.56;4886541;29;19963;-73
2022/04/11 04:10:34;;;;;;;;;;;;;;;1.11;72.74;96625.78;4886884;29;20415;-74
2022/04/11 04:13:00;;;;;;;;;;;;;;;1.11;73.02;96625.78;4898549;29;19983;-74
2022/04/11 04:15:26;;;;;;;;;;;;;;;1.12;72.46;96617.88;4887070;29;19953;-76
2022/04/11 04:17:52;;;;;;;;;;;;;;;1.13;73.21;96623.84;4891262;29;19949;-73
2022/04/11 04:20:19;;;;;;;;;;;;;;;1.13;72.75;96616.09;4894199;29;20169;-74
2022/04/11 04:22:44;;;;;;;;;;;;;;;1.13;72.80;96621.25;4889006;29;19959;-74
2022/04/11 04:25:11;;;;;;;;;;;;;;;1.12;72.89;96619.66;4885891;29;20470;-73
2022/04/11 04:27:36;;;;;;;;;;;;;;;1.11;72.92;96618.03;4891436;29;19961;-74
2022/04/11 04:30:03;;;;;;;;;;;;;;;1.10;72.46;96621.59;4891464;29;19965;-74
2022/04/11 04:32:29;;;;;;;;;;;;;;;1.09;72.75;96631.09;4884628;29;19969;-73
2022/04/11 04:34:55;;;;;;;;;;;;;;;1.08;73.08;96632.06;4880062;29;20009;-74
2022/04/11 04:37:20;;;;;;;;;;;;;;;1.08;72.81;96629.47;4891670;29;19964;-73
2022/04/11 04:39:46;;;;;;;;;;;;;;;1.06;72.37;96631.41;4888982;29;19959;-74
2022/04/11 04:42:41;;;;;;;;;;;;;;;1.02;72.86;96635.25;4832852;29;20062;-74
2022/04/11 04:45:07;;;;;;;;;;;;;;;0.99;73.06;96638.97;4870863;29;20018;-74
2022/04/11 04:47:33;;;;;;;;;;;;;;;0.98;72.38;96633.94;4887113;29;19957;-74
2022/04/11 04:49:59;;;;;;;;;;;;;;;0.94;72.22;96633.44;4888019;29;20044;-73
2022/04/11 04:52:25;;;;;;;;;;;;;;;0.86;72.76;96635.97;4893098;29;19964;-74
2022/04/11 04:54:50;;;;;;;;;;;;;;;0.84;72.80;96637.06;4891812;29;20001;-74
2022/04/11 04:57:16;;;;;;;;;;;;;;;0.82;73.07;96637.25;4880073;29;20397;-73
2022/04/11 04:59:42;;;;;;;;;;;;;;;0.83;73.33;96635.47;4888612;29;20381;-73
2022/04/11 05:02:08;;;;;;;;;;;;;;;0.83;73.20;96618.19;4891801;29;20003;-73
2022/04/11 05:04:34;;;;;;;;;;;;;;;0.85;72.95;96625.81;4901275;29;19964;-73
2022/04/11 05:07:00;;;;;;;;;;;;;;;0.85;72.98;96618.84;4900894;29;19991;-74
2022/04/11 05:09:26;;;;;;;;;;;;;;;0.85;73.13;96628.38;4888084;29;19956;-73
2022/04/11 05:11:51;;;;;;;;;;;;;;;0.86;72.94;96624.81;4901456;29;19967;-74
2022/04/11 05:14:17;;;;;;;;;;;;;;;0.87;72.83;96622.09;4887700;29;19960;-73
2022/04/11 05:16:43;;;;;;;;;;;;;;;0.92;73.02;96624.22;4901075;29;20003;-73
2022/04/11 05:19:09;;;;;;;;;;;;;;;0.99;72.69;96620.06;4885224;29;20475;-74
2022/04/11 05:21:35;;;;;;;;;;;;;;;1.21;72.95;96629.84;4894028;29;20005;-73
2022/04/11 05:24:01;;;;;;;;;;;;;;;1.72;72.25;96618.72;4894304;29;19998;-74
2022/04/11 05:26:27;;;;;;;;;;;;;;;2.38;71.18;96611.88;4887410;29;20070;-74
2022/04/11 05:28:52;;;;;;;;;;;;;;;3.08;69.91;96593.13;4891633;29;19963;-74
2022/04/11 05:31:19;;;;;;;;;;;;;;;3.79;68.42;96586.16;4883610;29;20022;-74
2022/04/11 05:33:45;;;;;;;;;;;;;;;4.47;66.84;96561.19;4896305;29;19954;-73
2022/04/11 05:36:11;;;;;;;;;;;;;;;5.11;65.28;96540.88;4892390;29;19955;-73
2022/04/11 05:38:37;;;;;;;;;;;;;;;5.69;63.64;96520.91;4893212;29;19966;-74
2022/04/11 05:41:03;;;;;;;;;;;;;;;6.19;62.23;96506.16;4890831;29;20014;-74
2022/04/11 05:43:29;;;;;;;;;;;;;;;6.66;61.18;96493.47;4895345;29;19991;-74
2022/04/11 05:45:55;;;;;;;;;;;;;;;7.07;59.50;96479.63;4882984;29;20062;-75
2022/04/11 05:48:20;;;;;;;;;;;;;;;7.48;59.01;96474.34;4900283;29;19960;-74
2022/04/11 05:50:46;;;;;;;;;;;;;;;7.89;57.59;96462.16;4889089;29;20032;-74
2022/04/11 05:53:12;;;;;;;;;;;;;;;8.28;56.70;96456.13;4882944;29;19959;-73
2022/04/11 05:55:38;;;;;;;;;;;;;;;8.61;55.82;96450.06;4891669;29;19990;-73
2022/04/11 05:58:04;;;;;;;;;;;;;;;8.91;54.42;96434.69;4891839;29;19965;-75
2022/04/11 06:00:30;;;;;;;;;;;;;;;9.23;54.87;96441.78;4891128;29;19968;-74
2022/04/11 06:02:56;;;;;;;;;;;;;;;9.50;54.08;96443.25;4900821;29;20049;-74
2022/04/11 06:05:22;;;;;;;;;;;;;;;9.81;51.87;96418.06;4885331;29;19991;-75
2022/04/11 06:07:48;;;;;;;;;;;;;;;10.05;52.10;96423.50;4893450;29;20306;-74
2022/04/11 06:10:14;;;;;;;;;;;;;;;10.22;51.52;96411.44;4893554;29;19964;-74
2022/04/11 06:12:40;;;;;;;;;;;;;;;10.30;50.62;96415.66;4889710;29;19966;-75
2022/04/11 06:15:06;;;;;;;;;;;;;;;10.45;50.61;96454.63;4890512;29;20412;-74
2022/04/11 06:17:32;;;;;;;;;;;;;;;10.67;51.32;96474.19;4896809;29;19963;-75
2022/04/11 06:19:58;;;;;;;;;;;;;;;10.91;51.58;96471.72;4887428;29;19953;-74
2022/04/11 06:22:25;;;;;;;;;;;;;;;11.09;49.44;96458.59;4900000;29;19964;-73
2022/04/11 06:24:51;;;;;;;;;;;;;;;11.29;52.67;96499.53;4890952;29;19950;-75
2022/04/11 06:27:20;;;;;;;;;;;;;;;11.41;49.19;96461.00;4882876;29;19970;-74
2022/04/11 06:29:46;;;;;;;;;;;;;;;11.49;49.09;96471.22;4885364;29;19966;-75
2022/04/11 06:32:12;;;;;;;;;;;;;;;11.59;47.72;96449.66;4890584;29;20429;-72
2022/04/11 06:34:38;;;;;;;;;;;;;;;11.76;47.35;96453.25;4900262;29;19958;-75
2022/04/11 06:37:04;;;;;;;;;;;;;;;11.70;45.25;96443.63;4889878;29;20467;-75
2022/04/11 06:39:36;;;;;;;;;;;;;;;11.48;46.27;96453.03;4887322;29;20325;-75
2022/04/11 06:42:02;;;;;;;;;;;;;;;11.49;46.27;96522.94;4894213;29;19986;-75
2022/04/11 06:44:30;;;;;;;;;;;;;;;11.56;46.31;96542.03;4895481;29;20337;-75
2022/04/11 06:46:56;;;;;;;;;;;;;;;11.74;46.10;96551.72;4886998;29;19981;-75
2022/04/11 06:49:22;;;;;;;;;;;;;;;11.82;46.02;96542.69;4885273;29;19960;-75
2022/04/11 06:51:48;;;;;;;;;;;;;;;11.92;45.23;96548.25;4892516;29;20043;-74
2022/04/11 06:54:14;;;;;;;;;;;;;;;11.89;43.90;96536.38;4893642;29;19955;-75
2022/04/11 06:56:39;;;;;;;;;;;;;;;11.98;45.50;96540.25;4882067;29;19969;-75
2022/04/11 06:59:05;;;;;;;;;;;;;;;12.11;46.34;96544.53;4894059;29;19962;-75
2022/04/11 07:01:31;;;;;;;;;;;;;;;12.24;44.71;96546.19;4890021;29;20006;-75
2022/04/11 07:03:57;;;;;;;;;;;;;;;12.31;44.81;96548.72;4895228;29;19972;-72
2022/04/11 07:06:23;;;;;;;;;;;;;;;12.10;45.40;96552.66;4894824;29;19976;-74
2022/04/11 07:08:49;;;;;;;;;;;;;;;11.74;44.97;96546.47;4892851;29;20016;-75
2022/04/11 07:11:15;;;;;;;;;;;;;;;11.71;44.02;96531.91;4891933;29;19964;-75
2022/04/11 07:13:41;;;;;;;;;;;;;;;11.75;44.82;96535.69;4897869;29;19959;-74
2022/04/11 07:16:06;;;;;;;;;;;;;;;11.85;44.47;96537.00;4884601;29;19957;-74
2022/04/11 07:18:33;;;;;;;;;;;;;;;11.98;45.40;96547.34;4873531;29;19969;-74
2022/04/11 07:21:00;;;;;;;;;;;;;;;12.13;45.43;96539.06;4874873;29;19961;-74
2022/04/11 07:23:25;;;;;;;;;;;;;;;12.03;44.97;96551.94;4890021;29;20314;-75
2022/04/11 07:25:51;;;;;;;;;;;;;;;12.04;44.22;96543.84;4884347;29;19999;-75
2022/04/11 07:28:17;;;;;;;;;;;;;;;12.07;43.30;96538.13;4890520;29;19973;-75
2022/04/11 07:30:43;;;;;;;;;;;;;;;12.09;44.53;96546.59;4889772;29;20412;-74
2022/04/11 07:33:10;;;;;;;;;;;;;;;12.06;44.36;96539.16;4891767;29;20419;-74
2022/04/11 07:35:36;;;;;;;;;;;;;;;12.16;45.75;96554.41;4894496;29;19958;-74
2022/04/11 07:38:02;;;;;;;;;;;;;;;12.31;43.83;96548.72;4885700;29;20392;-75
2022/04/11 07:40:29;;;;;;;;;;;;;;;12.55;46.16;96550.31;4885262;29;19960;-75
2022/04/11 07:42:55;;;;;;;;;;;;;;;12.53;42.92;96538.44;4892746;29;19966;-74
2022/04/11 07:45:21;;;;;;;;;;;;;;;12.54;43.31;96546.09;4884503;29;20320;-74
2022/04/11 07:47:47;;;;;;;;;;;;;;;12.60;42.70;96544.41;4888786;29;19956;-74
2022/04/11 07:50:13;;;;;;;;;;;;;;;12.64;43.03;96545.53;4894777;29;19960;-74
2022/04/11 07:52:40;;;;;;;;;;;;;;;12.59;43.64;96548.03;4889056;29;19958;-75
2022/04/11 07:55:07;;;;;;;;;;;;;;;12.77;43.15;96539.25;4893536;29;19968;-75
2022/04/11 07:57:33;;;;;;;;;;;;;;;12.99;42.74;96547.34;4883773;29;19969;-74
2022/04/11 07:59:59;;;;;;;;;;;;;;;13.06;41.41;96531.44;4899163;29;20373;-75
2022/04/11 08:02:25;;;;;;;;;;;;;;;12.99;40.75;96529.72;4890081;29;20423;-74
2022/04/11 08:04:51;;;;;;;;;;;;;;;13.00;40.70;96538.44;4888958;29;19955;-75
2022/04/11 08:07:17;;;;;;;;;;;;;;;13.12;42.76;96551.56;4888515;29;19989;-74
2022/04/11 08:09:43;;;;;;;;;;;;;;;13.34;40.91;96534.16;4890941;29;19960;-75
2022/04/11 08:12:09;;;;;;;;;;;;;;;13.35;41.05;96533.13;4889464;29;20050;-74
2022/04/11 08:14:35;;;;;;;;;;;;;;;13.35;41.78;96529.69;4890511;29;20337;-75
2022/04/11 08:17:05;;;;;;;;;;;;;;;13.31;42.84;96533.81;4889689;29;19954;-75
2022/04/11 08:19:30;;;;;;;;;;;;;;;13.19;39.47;96515.41;4890430;29;19977;-75
2022/04/11 08:21:57;;;;;;;;;;;;;;;13.10;41.61;96533.41;4894897;29;19999;-76
2022/04/11 08:24:23;;;;;;;;;;;;;;;13.16;41.86;96537.72;4891218;29;19971;-75
2022/04/11 08:26:49;;;;;;;;;;;;;;;12.74;40.57;96535.22;4888511;29;19997;-75
2022/04/11 08:29:17;;;;;;;;;;;;;;;12.71;40.69;96534.91;4886594;29;20311;-75
2022/04/11 08:31:48;;;;;;;;;;;;;;;12.56;40.84;96538.00;4888882;29;20446;-75
2022/04/11 08:34:14;;;;;;;;;;;;;;;12.63;41.44;96537.88;4877137;29;20009;-75
2022/04/11 08:36:40;;;;;;;;;;;;;;;12.88;39.25;96535.81;4879878;29;19959;-75
2022/04/11 08:39:06;;;;;;;;;;;;;;;13.15;40.55;96537.97;4894928;29;19965;-75
2022/04/11 08:41:36;;;;;;;;;;;;;;;13.37;39.82;96536.31;4881922;29;20048;-75
2022/04/11 08:44:04;;;;;;;;;;;;;;;13.40;40.72;96530.59;4880346;29;19966;-75
2022/04/11 08:46:31;;;;;;;;;;;;;;;13.33;40.44;96527.31;4895489;29;19986;-74
2022/04/11 08:48:58;;;;;;;;;;;;;;;13.52;42.07;96542.94;4885977;29;19964;-74
2022/04/11 08:51:25;;;;;;;;;;;;;;;13.59;42.26;96539.13;4895338;29;19960;-74
2022/04/11 08:53:51;;;;;;;;;;;;;;;13.39;40.21;96525.56;4887081;29;20444;-75
2022/04/11 08:56:17;;;;;;;;;;;;;;;13.24;38.69;96517.34;4888109;29;20422;-75
2022/04/11 08:58:43;;;;;;;;;;;;;;;13.06;39.69;96523.53;4888836;29;19965;-75
2022/04/11 09:01:09;;;;;;;;;;;;;;;13.03;40.11;96522.16;4889708;29;20159;-75
2022/04/11 09:03:35;;;;;;;;;;;;;;;13.09;39.65;96515.19;4891658;29;19965;-75
2022/04/11 09:06:04;;;;;;;;;;;;;;;13.07;39.12;96520.69;4888226;29;19993;-74
2022/04/11 09:08:40;;;;;;;;;;;;;;;12.99;39.88;96521.03;4884468;29;19968;-74
2022/04/11 09:11:07;;;;;;;;;;;;;;;12.96;38.60;96516.25;4890164;29;19960;-75
2022/04/11 09:13:51;;;;;;;;;;;;;;;12.87;39.45;96514.97;4888133;29;20412;-75
2022/04/11 09:16:17;;;;;;;;;;;;;;;13.04;39.84;96528.22;4886454;29;20457;-74
2022/04/11 09:18:47;;;;;;;;;;;;;;;12.84;37.95;96507.56;4886956;29;20407;-74
2022/04/11 09:21:13;;;;;;;;;;;;;;;12.89;38.78;96500.56;4889739;29;19962;-75
2022/04/11 09:23:39;;;;;;;;;;;;;;;12.93;37.66;96500.91;4866271;29;19956;-75
2022/04/11 09:26:22;;;;;;;;;;;;;;;12.67;36.91;96499.56;4889496;29;19981;-74
2022/04/11 09:29:04;;;;;;;;;;;;;;;12.57;40.16;96510.66;4883920;29;19953;-74
2022/04/11 09:31:30;;;;;;;;;;;;;;;12.50;37.09;96499.44;4886925;29;19960;-75
2022/04/11 09:33:56;;;;;;;;;;;;;;;12.74;39.31;96508.13;4898137;29;19952;-75
2022/04/11 09:36:22;;;;;;;;;;;;;;;13.05;38.60;96501.69;4882645;29;20413;-77
2022/04/11 09:38:58;;;;;;;;;;;;;;;13.19;37.67;96492.50;4898255;29;20061;-75
2022/04/11 09:41:30;;;;;;;;;;;;;;;13.25;37.23;96485.50;4884399;29;19952;-75
2022/04/11 09:43:56;;;;;;;;;;;;;;;13.18;37.20;96484.81;4887990;29;19967;-75
2022/04/11 09:46:22;;;;;;;;;;;;;;;13.10;38.73;96491.28;4873512;29;19976;-75
2022/04/11 09:48:51;;;;;;;;;;;;;;;13.13;36.15;96479.47;4889725;29;20414;-75
2022/04/11 09:51:17;;;;;;;;;;;;;;;13.18;36.65;96480.34;4893840;29;19970;-75
2022/04/11 09:53:44;;;;;;;;;;;;;;;13.37;37.22;96483.63;4883121;29;19982;-74
2022/04/11 09:56:10;;;;;;;;;;;;;;;13.54;37.28;96475.00;4882956;29;20854;-75
2022/04/11 09:58:39;;;;;;;;;;;;;;;13.71;37.18;96477.66;4891143;29;19966;-75
2022/04/11 10:01:05;;;;;;;;;;;;;;;13.79;36.27;96466.75;4885727;29;19951;-75
2022/04/11 10:03:31;;;;;;;;;;;;;;;13.71;36.05;96475.84;4900012;29;20320;-75
2022/04/11 10:05:58;;;;;;;;;;;;;;;13.50;36.72;96479.13;4891468;29;19986;-74
2022/04/11 10:08:27;;;;;;;;;;;;;;;13.45;37.08;96482.47;4897079;29;19971;-75
2022/04/11 10:10:55;;;;;;;;;;;;;;;13.52;37.35;96466.53;4892821;29;19962;-75
2022/04/11 10:13:21;;;;;;;;;;;;;;;13.50;37.13;96466.78;4888136;29;19961;-75
2022/04/11 10:15:51;;;;;;;;;;;;;;;13.66;34.25;96451.25;4900588;29;20318;-76
2022/04/11 10:18:21;;;;;;;;;;;;;;;13.81;34.97;96456.75;4887350;29;19951;-75
2022/04/11 10:20:50;;;;;;;;;;;;;;;13.86;34.52;96446.31;4888756;29;19970;-75
2022/04/11 10:23:27;;;;;;;;;;;;;;;13.97;34.55;96444.66;4890927;29;19954;-75
2022/04/11 10:25:55;;;;;;;;;;;;;;;14.14;35.21;96445.44;4888549;29;19956;-75
2022/04/11 10:28:25;;;;;;;;;;;;;;;14.31;35.40;96444.63;4894270;29;19954;-76
2022/04/11 10:31:04;;;;;;;;;;;;;;;14.41;33.69;96442.94;4878880;29;19956;-75
2022/04/11 10:33:42;;;;;;;;;;;;;;;14.46;35.07;96444.06;4882532;29;19953;-75
2022/04/11 10:36:31;;;;;;;;;;;;;;;14.53;34.31;96439.41;4893159;29;19962;-75
2022/04/11 10:39:15;;;;;;;;;;;;;;;14.63;35.21;96434.28;4890440;29;19977;-75
2022/04/11 10:41:56;;;;;;;;;;;;;;;14.86;34.42;96440.41;4895538;29;19954;-75
2022/04/11 10:44:31;;;;;;;;;;;;;;;15.04;35.29;96426.88;4889541;29;19981;-75
2022/04/11 10:47:10;;;;;;;;;;;;;;;14.83;33.43;96423.22;4901003;29;19970;-75
2022/04/11 10:49:44;;;;;;;;;;;;;;;14.97;34.45;96423.63;4884718;29;19956;-75
2022/04/11 10:52:29;;;;;;;;;;;;;;;15.21;32.04;96413.59;4900063;29;19971;-75
2022/04/11 10:54:56;;;;;;;;;;;;;;;15.49;32.27;96417.84;4887028;29;19955;-75
2022/04/11 10:57:34;;;;;;;;;;;;;;;15.66;34.08;96423.03;4895091;29;20411;-75
2022/04/11 11:00:09;;;;;;;;;;;;;;;15.81;32.08;96411.81;4891224;29;19964;-75
2022/04/11 11:02:47;;;;;;;;;;;;;;;16.00;30.77;96410.41;4881861;29;19966;-75
2022/04/11 11:05:29;;;;;;;;;;;;;;;15.93;32.10;96419.59;4893297;29;19965;-77
2022/04/11 11:08:09;;;;;;;;;;;;;;;15.78;30.18;96401.75;4865147;29;19983;-75
2022/04/11 11:10:38;;;;;;;;;;;;;;;15.49;30.58;96409.91;4891512;29;19965;-75
2022/04/11 11:13:22;;;;;;;;;;;;;;;15.37;32.38;96406.63;4888989;29;19961;-75
2022/04/11 11:15:48;;;;;;;;;;;;;;;15.42;31.49;96404.84;4881704;29;19956;-75
2022/04/11 11:18:14;;;;;;;;;;;;;;;15.49;32.44;96402.00;4887611;29;20057;-75
2022/04/11 11:20:54;;;;;;;;;;;;;;;15.67;31.88;96408.00;4894344;29;19991;-75
2022/04/11 11:23:23;;;;;;;;;;;;;;;15.88;30.86;96388.63;4893544;29;20338;-75
2022/04/11 11:25:50;;;;;;;;;;;;;;;15.93;29.99;96380.72;4881345;29;19961;-75
2022/04/11 11:28:16;;;;;;;;;;;;;;;15.92;31.20;96389.72;4893174;29;19968;-75
2022/04/11 11:30:42;;;;;;;;;;;;;;;15.98;30.82;96383.41;4888664;29;19970;-75
2022/04/11 11:33:12;;;;;;;;;;;;;;;16.21;31.31;96389.34;4898980;29;20836;-75
2022/04/11 11:35:51;;;;;;;;;;;;;;;16.27;29.86;96382.25;4886680;29;20428;-75
2022/04/11 11:38:24;;;;;;;;;;;;;;;16.13;nan;96369.50;4890839;29;19970;-76
2022/04/11 11:40:51;;;;;;;;;;;;;;;16.13;28.37;96384.56;4885987;29;19948;-75
2022/04/11 11:43:17;;;;;;;;;;;;;;;16.25;28.79;96379.88;4884810;29;19967;-76
2022/04/11 11:45:44;;;;;;;;;;;;;;;16.40;29.95;96382.63;4899237;29;19966;-75
2022/04/11 11:48:21;;;;;;;;;;;;;;;16.52;29.22;96376.31;4894530;29;19990;-75
2022/04/11 11:50:46;;;;;;;;;;;;;;;16.38;28.51;96370.69;4881219;29;20327;-76
2022/04/11 11:53:13;;;;;;;;;;;;;;;16.53;30.17;96376.06;4890037;29;19963;-75
2022/04/11 11:55:58;;;;;;;;;;;;;;;16.72;28.23;96372.97;4895961;29;20408;-76
2022/04/11 11:58:40;;;;;;;;;;;;;;;16.65;29.15;96370.53;4881131;29;19968;-75
2022/04/11 12:01:09;;;;;;;;;;;;;;;16.34;27.60;96364.31;4892782;29;19962;-75
2022/04/11 12:04:19;;;;;;;;;;;;;;;16.40;30.92;96368.59;4832499;29;19957;-76
2022/04/11 12:06:45;;;;;;;;;;;;;;;16.66;25.71;96360.78;4835047;29;20060;-75
2022/04/11 12:09:11;;;;;;;;;;;;;;;16.86;30.37;96363.50;4823556;29;20423;-75
2022/04/11 12:11:37;;;;;;;;;;;;;;;16.71;27.75;96355.47;4835222;29;19952;-75
2022/04/11 12:14:05;;;;;;;;;;;;;;;16.51;nan;96348.25;4833017;29;20025;-75
2022/04/11 12:16:32;;;;;;;;;;;;;;;16.46;26.38;96354.31;4823348;29;20417;-75
2022/04/11 12:19:00;;;;;;;;;;;;;;;16.76;28.76;96355.53;4833433;29;19963;-75
2022/04/11 12:21:32;;;;;;;;;;;;;;;17.17;26.88;96345.06;4841091;29;20416;-78
2022/04/11 12:23:59;;;;;;;;;;;;;;;17.34;27.68;96336.88;4823991;29;19969;-75
2022/04/11 12:26:28;;;;;;;;;;;;;;;17.34;26.00;96334.22;4890655;29;20317;-75
2022/04/11 12:28:55;;;;;;;;;;;;;;;17.31;26.85;96335.53;4888962;29;19987;-75
2022/04/11 12:31:22;;;;;;;;;;;;;;;17.33;26.36;96335.28;4896138;29;19965;-75
2022/04/11 12:33:52;;;;;;;;;;;;;;;16.89;24.70;96338.38;4887372;29;19955;-75
2022/04/11 12:36:26;;;;;;;;;;;;;;;16.93;27.24;96328.84;4887301;29;20323;-75
2022/04/11 12:38:53;;;;;;;;;;;;;;;17.14;27.57;96335.00;4897954;29;19953;-75
2022/04/11 12:41:43;;;;;;;;;;;;;;;17.34;26.71;96326.25;4885749;29;19991;-75
2022/04/11 12:44:15;;;;;;;;;;;;;;;17.58;29.57;96318.59;4889872;29;19951;-74
2022/04/11 12:46:48;;;;;;;;;;;;;;;17.82;28.55;96308.22;4886561;29;19972;-75
2022/04/11 12:49:15;;;;;;;;;;;;;;;18.10;28.73;96322.81;4885577;29;20357;-75
2022/04/11 12:51:41;;;;;;;;;;;;;;;18.20;27.91;96314.03;4895038;29;19961;-75
2022/04/11 12:54:07;;;;;;;;;;;;;;;18.07;25.42;96306.63;4893295;29;19967;-74
2022/04/11 12:56:34;;;;;;;;;;;;;;;18.03;27.46;96298.41;4871069;29;20037;-76